createdAt,value
2023-02-19T00:02:09.735Z,102653.19
2023-02-19T00:07:26.027Z,102656.81
2023-02-19T00:12:28.166Z,102653.91
2023-02-19T00:17:33.714Z,102655.00
2023-02-19T00:22:40.173Z,102651.47
2023-02-19T00:27:48.509Z,102643.97
2023-02-19T00:32:51.951Z,102637.72
2023-02-19T00:37:54.405Z,102635.84
2023-02-19T00:43:01.112Z,102619.94
2023-02-19T00:48:07.462Z,102633.38
2023-02-19T00:53:16.129Z,102627.13
2023-02-19T00:58:21.604Z,102622.56
2023-02-19T01:03:34.216Z,102623.00
2023-02-19T01:08:46.397Z,102626.38
2023-02-19T01:13:53.402Z,102624.28
2023-02-19T01:19:01.747Z,102623.66
2023-02-19T01:24:08.923Z,102623.47
2023-02-19T01:29:18.428Z,102611.72
2023-02-19T01:34:24.977Z,102614.25
2023-02-19T01:44:51.895Z,102600.41
2023-02-19T01:50:04.060Z,102598.72
2023-02-19T01:55:12.013Z,102597.28
2023-02-19T02:05:26.952Z,102588.28
2023-02-19T02:10:39.978Z,102583.06
2023-02-19T02:16:26.597Z,102578.88
2023-02-19T02:22:33.722Z,102557.94
2023-02-19T02:28:20.540Z,102555.03
2023-02-19T02:33:54.187Z,102549.78
2023-02-19T02:39:00.652Z,102552.72
2023-02-19T02:44:09.072Z,102542.72
2023-02-19T02:49:27.499Z,102540.81
2023-02-19T02:54:55.233Z,102538.97
2023-02-19T03:00:03.180Z,102543.78
2023-02-19T03:05:42.558Z,102543.59
2023-02-19T03:11:25.736Z,102539.84
2023-02-19T03:16:56.292Z,102538.59
2023-02-19T03:22:27.864Z,102537.56
2023-02-19T03:27:47.040Z,102539.84
2023-02-19T03:33:04.514Z,102537.09
2023-02-19T03:38:39.400Z,102534.38
2023-02-19T03:44:07.096Z,102537.50
2023-02-19T03:49:37.852Z,102536.06
2023-02-19T03:55:08.197Z,102542.75
2023-02-19T04:00:39.579Z,102546.75
2023-02-19T04:05:53.020Z,102546.13
2023-02-19T04:11:10.929Z,102542.16
2023-02-19T04:16:30.160Z,102542.81
2023-02-19T04:21:39.120Z,102535.69
2023-02-19T04:26:45.454Z,102537.78
2023-02-19T04:31:50.721Z,102539.06
2023-02-19T04:36:57.013Z,102537.81
2023-02-19T04:42:03.591Z,102544.94
2023-02-19T04:47:12.616Z,102551.22
2023-02-19T04:52:18.541Z,102552.06
2023-02-19T04:57:23.201Z,102548.31
2023-02-19T05:11:55.771Z,102534.06
2023-02-19T05:32:41.790Z,102545.59
2023-02-19T05:37:48.391Z,102545.59
2023-02-19T05:42:55.108Z,102548.53
2023-02-19T05:47:59.849Z,102559.59
2023-02-19T05:53:05.239Z,102559.59
2023-02-19T05:58:10.622Z,102558.34
2023-02-19T06:03:18.261Z,102552.06
2023-02-19T06:08:29.457Z,102549.78
2023-02-19T06:13:34.087Z,102555.22
2023-02-19T06:18:47.389Z,102555.22
2023-02-19T06:24:02.948Z,102558.56
2023-02-19T06:29:07.532Z,102568.59
2023-02-19T06:34:21.999Z,102576.50
2023-02-19T06:39:27.248Z,102565.84
2023-02-19T06:44:32.084Z,102575.06
2023-02-19T06:49:44.449Z,102582.56
2023-02-19T06:54:51.510Z,102589.66
2023-02-19T07:00:00.435Z,102589.66
2023-02-19T07:05:15.446Z,102589.25
2023-02-19T07:10:20.855Z,102594.69
2023-02-19T07:15:27.961Z,102595.94
2023-02-19T07:20:30.985Z,102605.56
2023-02-19T07:25:44.749Z,102607.44
2023-02-19T07:31:04.163Z,102612.69
2023-02-19T07:36:15.364Z,102609.34
2023-02-19T07:41:23.452Z,102612.69
2023-02-19T07:46:37.176Z,102620.22
2023-02-19T07:51:42.409Z,102628.00
2023-02-19T07:56:45.490Z,102627.31
2023-02-19T08:02:10.359Z,102628.00
2023-02-19T08:07:20.837Z,102634.56
2023-02-19T08:12:43.491Z,102646.63
2023-02-19T08:17:52.522Z,102637.91
2023-02-19T08:23:00.907Z,102642.13
2023-02-19T08:28:09.319Z,102634.34
2023-02-19T08:33:18.843Z,102634.72
2023-02-19T08:38:26.522Z,102628.63
2023-02-19T08:43:31.479Z,102645.72
2023-02-19T08:48:38.616Z,102643.16
2023-02-19T08:53:50.281Z,102653.81
2023-02-19T08:59:04.708Z,102650.53
2023-02-19T09:04:14.438Z,102653.19
2023-02-19T09:09:21.021Z,102661.38
2023-02-19T09:14:32.116Z,102661.88
2023-02-19T09:19:49.426Z,102657.56
2023-02-19T09:25:01.927Z,102665.50
2023-02-19T09:30:05.506Z,102667.25
2023-02-19T09:35:19.566Z,102655.03
2023-02-19T09:40:36.828Z,102659.72
2023-02-19T09:45:41.505Z,102657.25
2023-02-19T09:51:04.065Z,102655.03
2023-02-19T09:56:07.621Z,102645.59
2023-02-19T10:01:22.355Z,102639.38
2023-02-19T10:06:30.350Z,102644.50
2023-02-19T10:11:55.420Z,102646.16
2023-02-19T10:17:10.239Z,102646.97
2023-02-19T10:22:16.670Z,102647.09
2023-02-19T10:27:20.745Z,102640.91
2023-02-19T10:32:27.148Z,102641.59
2023-02-19T10:37:34.791Z,102645.00
2023-02-19T10:42:53.838Z,102636.50
2023-02-19T10:48:07.504Z,102634.34
2023-02-19T10:53:31.693Z,102630.78
2023-02-19T10:58:46.201Z,102620.59
2023-02-19T11:04:35.564Z,102624.44
2023-02-19T11:10:32.756Z,102636.56
2023-02-19T11:15:41.946Z,102632.13
2023-02-19T11:21:00.460Z,102628.31
2023-02-19T11:26:21.973Z,102632.19
2023-02-19T11:31:40.417Z,102632.72
2023-02-19T11:37:16.080Z,102637.13
2023-02-19T11:42:51.488Z,102626.31
2023-02-19T11:48:42.220Z,102617.19
2023-02-19T11:53:54.288Z,102604.47
2023-02-19T11:59:29.287Z,102613.59
2023-02-19T12:04:50.662Z,102610.28
2023-02-19T12:10:44.574Z,102592.34
2023-02-19T12:22:36.270Z,102588.47
2023-02-19T12:27:49.077Z,102581.03
2023-02-19T12:33:09.756Z,102572.25
2023-02-19T12:38:33.802Z,102560.91
2023-02-19T12:44:03.624Z,102544.59
2023-02-19T12:49:34.891Z,102538.78
2023-02-19T12:54:47.846Z,102529.34
2023-02-19T13:00:05.680Z,102530.44
2023-02-19T13:05:47.604Z,102513.00
2023-02-19T13:11:12.886Z,102507.22
2023-02-19T13:16:26.197Z,102503.09
2023-02-19T13:21:59.319Z,102501.75
2023-02-19T13:27:44.657Z,102498.97
2023-02-19T13:33:06.124Z,102492.41
2023-02-19T13:38:17.629Z,102486.09
2023-02-19T13:43:43.665Z,102488.03
2023-02-19T13:48:48.776Z,102485.28
2023-02-19T13:54:15.101Z,102485.22
2023-02-19T13:59:40.562Z,102483.25
2023-02-19T14:05:14.436Z,102480.06
2023-02-19T14:11:06.277Z,102473.06
2023-02-19T14:16:42.840Z,102472.03
2023-02-19T14:21:50.492Z,102468.63
2023-02-19T14:27:45.928Z,102453.16
2023-02-19T14:33:12.172Z,102448.22
2023-02-19T14:39:45.526Z,102448.19
2023-02-19T14:45:11.881Z,102448.22
2023-02-19T14:50:48.102Z,102435.63
2023-02-19T14:56:18.264Z,102439.53
2023-02-19T15:01:33.164Z,102431.63
2023-02-19T15:06:39.392Z,102430.78
2023-02-19T15:11:43.895Z,102425.31
2023-02-19T15:16:53.989Z,102425.88
2023-02-19T15:22:05.392Z,102428.31
2023-02-19T15:27:20.990Z,102422.19
2023-02-19T15:32:34.111Z,102418.88
2023-02-19T15:37:45.936Z,102413.31
2023-02-19T15:42:51.272Z,102414.66
2023-02-19T15:48:01.074Z,102408.59
2023-02-19T15:53:35.629Z,102406.97
2023-02-19T15:58:55.872Z,102405.91
2023-02-19T16:04:07.091Z,102412.53
2023-02-19T16:09:29.008Z,102411.97
2023-02-19T16:14:44.887Z,102397.38
2023-02-19T16:20:12.735Z,102404.84
2023-02-19T16:25:49.608Z,102401.75
2023-02-19T16:31:09.557Z,102399.22
2023-02-19T16:36:46.601Z,102409.56
2023-02-19T16:41:56.210Z,102402.84
2023-02-19T16:47:22.856Z,102400.28
2023-02-19T16:52:38.667Z,102402.09
2023-02-19T16:57:43.385Z,102414.06
2023-02-19T17:02:52.416Z,102419.47
2023-02-19T17:07:56.055Z,102423.22
2023-02-19T17:13:04.841Z,102415.38
2023-02-19T17:18:27.878Z,102420.47
2023-02-19T17:23:41.521Z,102421.94
2023-02-19T17:28:57.151Z,102423.44
2023-02-19T17:34:12.204Z,102429.25
2023-02-19T17:39:18.578Z,102422.72
2023-02-19T17:44:24.329Z,102434.63
2023-02-19T17:49:34.355Z,102442.97
2023-02-19T17:54:40.115Z,102437.59
2023-02-19T17:59:51.781Z,102438.84
2023-02-19T18:05:00.400Z,102451.91
2023-02-19T18:10:11.734Z,102457.78
2023-02-19T18:15:29.932Z,102455.69
2023-02-19T18:25:51.008Z,102468.13
2023-02-19T18:30:56.951Z,102462.56
2023-02-19T18:36:00.623Z,102465.22
2023-02-19T18:41:05.995Z,102477.75
2023-02-19T18:46:21.884Z,102473.00
2023-02-19T18:51:29.267Z,102464.44
2023-02-19T18:56:46.748Z,102467.19
2023-02-19T19:01:55.274Z,102459.34
2023-02-19T19:06:59.213Z,102472.94
2023-02-19T19:12:06.963Z,102469.53
2023-02-19T19:17:10.799Z,102465.59
2023-02-19T19:22:23.005Z,102461.69
2023-02-19T19:27:30.256Z,102466.84
2023-02-19T19:32:36.300Z,102464.34
2023-02-19T19:37:43.453Z,102464.81
2023-02-19T19:43:01.416Z,102470.78
2023-02-19T19:48:06.488Z,102468.19
2023-02-19T19:53:13.278Z,102469.75
2023-02-19T19:58:20.922Z,102473.22
2023-02-19T20:03:29.505Z,102470.34
2023-02-19T20:08:40.139Z,102477.63
2023-02-19T20:13:59.464Z,102470.13
2023-02-19T20:19:15.167Z,102476.31
2023-02-19T20:24:19.826Z,102485.84
2023-02-19T20:29:25.493Z,102487.41
2023-02-19T20:34:53.881Z,102484.56
2023-02-19T20:39:58.743Z,102491.47
2023-02-19T20:45:07.718Z,102502.28
2023-02-19T20:50:16.538Z,102508.25
2023-02-19T20:55:22.445Z,102501.56
2023-02-19T21:00:29.721Z,102503.13
2023-02-19T21:05:32.615Z,102485.41
2023-02-19T21:10:46.324Z,102488.38
2023-02-19T21:15:53.018Z,102489.69
2023-02-19T21:21:02.120Z,102481.56
2023-02-19T21:26:07.931Z,102483.59
2023-02-19T21:31:12.889Z,102493.75
2023-02-19T21:36:20.331Z,102491.16
2023-02-19T21:41:27.546Z,102487.81
2023-02-19T21:46:35.539Z,102496.94
2023-02-19T21:51:45.593Z,102492.44
2023-02-19T21:56:53.707Z,102491.69
2023-02-19T22:02:03.155Z,102497.84
2023-02-19T22:07:11.423Z,102509.25
2023-02-19T22:17:35.543Z,102500.09
2023-02-19T22:22:44.537Z,102495.31
2023-02-19T22:27:56.895Z,102488.91
2023-02-19T22:33:04.062Z,102474.66
2023-02-19T22:38:08.771Z,102484.50
2023-02-19T22:43:25.188Z,102475.72
2023-02-19T22:48:42.307Z,102478.44
2023-02-19T22:54:00.670Z,102479.50
2023-02-19T22:59:06.333Z,102479.13
2023-02-19T23:04:13.838Z,102478.16
2023-02-19T23:09:24.372Z,102488.50
2023-02-19T23:14:35.928Z,102486.06
2023-02-19T23:19:42.111Z,102502.56
2023-02-19T23:24:54.569Z,102510.56
2023-02-19T23:35:23.510Z,102499.97
2023-02-19T23:40:29.430Z,102501.41
2023-02-19T23:45:37.369Z,102499.63
2023-02-19T23:50:42.467Z,102499.59
2023-02-19T23:55:47.594Z,102500.78
